Time;durP1;ratioP1;P1;durP2;ratioP2;P2;SDS_P1;SDS_P2;PMS_P1;PMS_P2;Temp;Humidity;BMP_temperature;BMP_pressure;BME280_temperature;BME280_humidity;BME280_pressure;Samples;Min_cycle;Max_cycle;Signal;HPM_P1;HPM_P2
2024/05/01 00:00:31;;;;;;;;;;;;;;;;;;5296603;27;19941;-72
2024/05/01 00:02:57;;;;;;;;;;;;;;;;;;5292604;27;19931;-72
2024/05/01 00:05:26;;;;;;;;;;;;;;;;;;5297604;27;20443;-72
2024/05/01 00:07:52;;;;;;;;;;;;;;;;;;5293349;27;19930;-72
2024/05/01 00:10:20;;;;;;;;;;;;;;;;;;5294896;27;19950;-72
2024/05/01 00:12:46;;;;;;;;;;;;;;;;;;5292861;27;19939;-73
2024/05/01 00:15:15;;;;;;;;;;;;;;;;;;5294024;26;20031;-72
2024/05/01 00:17:44;;;;;;;;;;;;;;;;;;5298411;27;20332;-72
2024/05/01 00:20:10;;;;;;;;;;;;;;;;;;5295257;27;20457;-73
2024/05/01 00:22:39;;;;;;;;;;;;;;;;;;5294165;26;19931;-73
2024/05/01 00:25:05;;;;;;;;;;;;;;;;;;5294195;27;19942;-74
2024/05/01 00:27:33;;;;;;;;;;;;;;;;;;5299187;27;19938;-74
2024/05/01 00:30:00;;;;;;;;;;;;;;;;;;5291997;27;19930;-74
2024/05/01 00:32:29;;;;;;;;;;;;;;;;;;5297637;26;19935;-74
2024/05/01 00:34:57;;;;;;;;;;;;;;;;;;5296334;27;19941;-74
2024/05/01 00:37:23;;;;;;;;;;;;;;;;;;5294325;27;19931;-74
2024/05/01 00:39:52;;;;;;;;;;;;;;;;;;5302835;27;20486;-75
2024/05/01 00:42:18;;;;;;;;;;;;;;;;;;5302439;27;19937;-74
2024/05/01 00:44:47;;;;;;;;;;;;;;;;;;5301211;26;20340;-74
2024/05/01 00:47:13;;;;;;;;;;;;;;;;;;5297942;27;19931;-74
2024/05/01 00:49:42;;;;;;;;;;;;;;;;;;5301572;26;19946;-74
2024/05/01 00:52:09;;;;;;;;;;;;;;;;;;5293557;27;19931;-73
2024/05/01 00:54:37;;;;;;;;;;;;;;;;;;5300994;27;19938;-75
2024/05/01 00:57:03;;;;;;;;;;;;;;;;;;5300545;27;19945;-75
2024/05/01 00:59:32;;;;;;;;;;;;;;;;;;5302045;26;20273;-75
2024/05/01 01:01:58;;;;;;;;;;;;;;;;;;5302014;27;19941;-76
2024/05/01 01:04:27;;;;;;;;;;;;;;;;;;5300121;26;19960;-75
2024/05/01 01:06:53;;;;;;;;;;;;;;;;;;5301215;27;19935;-75
2024/05/01 01:09:22;;;;;;;;;;;;;;;;;;5301202;27;19930;-75
2024/05/01 01:11:48;;;;;;;;;;;;;;;;;;5300254;27;20030;-75
2024/05/01 01:14:17;;;;;;;;;;;;;;;;;;5299206;27;20000;-75
2024/05/01 01:16:43;;;;;;;;;;;;;;;;;;5300650;27;19935;-75
2024/05/01 01:19:12;;;;;;;;;;;;;;;;;;5300499;27;20025;-75
2024/05/01 01:21:38;;;;;;;;;;;;;;;;;;5294838;27;20468;-73
2024/05/01 01:24:07;;;;;;;;;;;;;;;;;;5294626;27;20322;-73
2024/05/01 01:26:33;;;;;;;;;;;;;;;;;;5293381;27;19938;-73
2024/05/01 01:29:02;;;;;;;;;;;;;;;;;;5291063;26;20524;-73
2024/05/01 01:31:28;;;;;;;;;;;;;;;;;;5293101;27;20408;-73
2024/05/01 01:33:57;;;;;;;;;;;;;;;;;;5294825;27;19953;-73
2024/05/01 01:36:23;;;;;;;;;;;;;;;;;;5295600;26;19931;-72
2024/05/01 01:38:51;;;;;;;;;;;;;;;;;;5292120;26;19959;-73
2024/05/01 01:41:17;;;;;;;;;;;;;;;;;;5298213;26;19930;-73
2024/05/01 01:43:46;;;;;;;;;;;;;;;;;;5293963;26;19985;-73
2024/05/01 01:46:12;;;;;;;;;;;;;;;;;;5291746;26;19931;-73
2024/05/01 01:48:41;;;;;;;;;;;;;;;;;;5294906;26;20002;-73
2024/05/01 01:51:07;;;;;;;;;;;;;;;;;;5292126;26;19941;-73
2024/05/01 01:53:35;;;;;;;;;;;;;;;;;;5294507;27;20024;-72
2024/05/01 01:56:03;;;;;;;;;;;;;;;;;;5291791;27;20101;-72
2024/05/01 01:58:32;;;;;;;;;;;;;;;;;;5292486;27;19946;-73
2024/05/01 02:00:58;;;;;;;;;;;;;;;;;;5291351;26;19938;-73
2024/05/01 02:03:27;;;;;;;;;;;;;;;;;;5289702;27;20379;-73
2024/05/01 02:05:53;;;;;;;;;;;;;;;;;;5296342;27;19945;-73
2024/05/01 02:08:21;;;;;;;;;;;;;;;;;;5296012;27;20501;-73
2024/05/01 02:10:47;;;;;;;;;;;;;;;;;;5297029;27;19934;-73
2024/05/01 02:13:16;;;;;;;;;;;;;;;;;;5293807;26;19939;-73
2024/05/01 02:15:42;;;;;;;;;;;;;;;;;;5292862;26;19946;-73
2024/05/01 02:18:11;;;;;;;;;;;;;;;;;;5296831;26;20515;-73
2024/05/01 02:20:37;;;;;;;;;;;;;;;;;;5295941;27;20282;-73
2024/05/01 02:23:06;;;;;;;;;;;;;;;;;;5297053;27;19946;-73
2024/05/01 02:25:32;;;;;;;;;;;;;;;;;;5294441;26;19938;-73
2024/05/01 02:28:00;;;;;;;;;;;;;;;;;;5295927;27;19937;-69
2024/05/01 02:30:26;;;;;;;;;;;;;;;;;;5300209;27;19941;-69
2024/05/01 02:32:55;;;;;;;;;;;;;;;;;;5290288;26;20376;-69
2024/05/01 02:35:21;;;;;;;;;;;;;;;;;;5296639;27;20330;-69
2024/05/01 02:37:50;;;;;;;;;;;;;;;;;;5294406;27;20000;-69
2024/05/01 02:40:16;;;;;;;;;;;;;;;;;;5292296;27;19935;-69
2024/05/01 02:42:45;;;;;;;;;;;;;;;;;;5292760;27;19939;-69
2024/05/01 02:45:11;;;;;;;;;;;;;;;;;;5295955;26;19931;-69
2024/05/01 02:47:39;;;;;;;;;;;;;;;;;;5295928;26;19931;-70
2024/05/01 02:50:05;;;;;;;;;;;;;;;;;;5293395;26;20435;-70
2024/05/01 02:52:34;;;;;;;;;;;;;;;;;;5293033;27;19946;-69
2024/05/01 02:55:00;;;;;;;;;;;;;;;;;;5293491;26;20500;-70
2024/05/01 02:57:29;;;;;;;;;;;;;;;;;;5292372;27;19970;-70
2024/05/01 02:59:55;;;;;;;;;;;;;;;;;;5296557;27;19958;-70
2024/05/01 03:02:24;;;;;;;;;;;;;;;;;;5294848;27;19949;-70
2024/05/01 03:04:50;;;;;;;;;;;;;;;;;;5293635;27;19931;-69
2024/05/01 03:07:18;;;;;;;;;;;;;;;;;;5295666;26;19931;-69
2024/05/01 03:09:44;;;;;;;;;;;;;;;;;;5294951;26;19931;-69
2024/05/01 03:12:13;;;;;;;;;;;;;;;;;;5294700;27;20289;-69
2024/05/01 03:14:39;;;;;;;;;;;;;;;;;;5295593;26;19931;-69
2024/05/01 03:17:08;;;;;;;;;;;;;;;;;;5294640;27;19938;-69
2024/05/01 03:19:34;;;;;;;;;;;;;;;;;;5292759;27;20396;-70
2024/05/01 03:22:03;;;;;;;;;;;;;;;;;;5291193;27;19939;-69
2024/05/01 03:24:29;;;;;;;;;;;;;;;;;;5294241;26;19930;-70
2024/05/01 03:26:57;;;;;;;;;;;;;;;;;;5299592;27;19930;-69
2024/05/01 03:29:24;;;;;;;;;;;;;;;;;;5294626;27;19930;-69
2024/05/01 03:31:52;;;;;;;;;;;;;;;;;;5292173;27;19931;-69
2024/05/01 03:34:18;;;;;;;;;;;;;;;;;;5291621;27;19938;-69
2024/05/01 03:36:47;;;;;;;;;;;;;;;;;;5294639;27;20344;-69
2024/05/01 03:39:16;;;;;;;;;;;;;;;;;;5291509;26;19938;-70
2024/05/01 03:41:44;;;;;;;;;;;;;;;;;;5294535;27;19931;-70
2024/05/01 03:44:13;;;;;;;;;;;;;;;;;;5293789;26;19939;-69
2024/05/01 03:46:42;;;;;;;;;;;;;;;;;;5292961;27;19931;-69
2024/05/01 03:49:10;;;;;;;;;;;;;;;;;;5297470;26;19931;-69
2024/05/01 03:51:39;;;;;;;;;;;;;;;;;;5297829;26;19930;-70
2024/05/01 03:54:08;;;;;;;;;;;;;;;;;;5297474;27;19937;-69
2024/05/01 03:56:37;;;;;;;;;;;;;;;;;;5294209;26;19942;-69
2024/05/01 03:59:05;;;;;;;;;;;;;;;;;;5291008;27;19938;-69
2024/05/01 04:01:34;;;;;;;;;;;;;;;;;;5296211;26;19938;-69
2024/05/01 04:04:06;;;;;;;;;;;;;;;;;;5293689;27;19938;-69
2024/05/01 04:06:35;;;;;;;;;;;;;;;;;;5291557;27;19990;-69
2024/05/01 04:09:05;;;;;;;;;;;;;;;;;;5289677;27;19950;-69
2024/05/01 04:11:33;;;;;;;;;;;;;;;;;;5291567;27;20036;-70
2024/05/01 04:14:02;;;;;;;;;;;;;;;;;;5288094;26;19930;-70
2024/05/01 04:16:28;;;;;;;;;;;;;;;;;;5293334;26;20477;-71
2024/05/01 04:18:57;;;;;;;;;;;;;;;;;;5287041;27;19937;-70
2024/05/01 04:21:25;;;;;;;;;;;;;;;;;;5290764;26;19931;-70
2024/05/01 04:23:54;;;;;;;;;;;;;;;;;;5295862;27;19931;-70
2024/05/01 04:26:23;;;;;;;;;;;;;;;;;;5301550;27;19937;-70
2024/05/01 04:28:52;;;;;;;;;;;;;;;;;;5298001;26;19938;-70
2024/05/01 04:31:20;;;;;;;;;;;;;;;;;;5296924;27;19931;-70
2024/05/01 04:33:49;;;;;;;;;;;;;;;;;;5302489;26;19941;-70
2024/05/01 04:36:18;;;;;;;;;;;;;;;;;;5304507;27;19966;-70
2024/05/01 04:38:46;;;;;;;;;;;;;;;;;;5303728;26;19956;-70
2024/05/01 04:41:15;;;;;;;;;;;;;;;;;;5303801;26;19930;-70
2024/05/01 04:43:44;;;;;;;;;;;;;;;;;;5301832;26;19930;-70
2024/05/01 04:46:12;;;;;;;;;;;;;;;;;;5304115;26;19938;-70
2024/05/01 04:48:41;;;;;;;;;;;;;;;;;;5303350;27;19942;-70
2024/05/01 04:51:10;;;;;;;;;;;;;;;;;;5302573;26;19930;-68
2024/05/01 04:53:38;;;;;;;;;;;;;;;;;;5301216;26;19931;-68
2024/05/01 04:56:07;;;;;;;;;;;;;;;;;;5302654;26;19931;-68
2024/05/01 04:58:36;;;;;;;;;;;;;;;;;;5300360;26;19949;-67
2024/05/01 05:01:05;;;;;;;;;;;;;;;;;;5301094;26;20350;-68
2024/05/01 05:03:33;;;;;;;;;;;;;;;;;;5302625;26;19941;-68
2024/05/01 05:06:02;;;;;;;;;;;;;;;;;;5302606;27;19937;-68
2024/05/01 05:08:31;;;;;;;;;;;;;;;;;;5303534;27;19931;-68
2024/05/01 05:11:00;;;;;;;;;;;;;;;;;;5304686;26;19973;-71
2024/05/01 05:13:28;;;;;;;;;;;;;;;;;;5294780;26;20374;-71
2024/05/01 05:15:57;;;;;;;;;;;;;;;;;;5295555;26;19937;-71
2024/05/01 05:18:26;;;;;;;;;;;;;;;;;;5303979;26;19942;-71
2024/05/01 05:20:54;;;;;;;;;;;;;;;;;;5304348;26;19941;-71
2024/05/01 05:23:23;;;;;;;;;;;;;;;;;;5306636;26;19938;-70
2024/05/01 05:25:52;;;;;;;;;;;;;;;;;;5295620;27;19942;-71
2024/05/01 05:28:20;;;;;;;;;;;;;;;;;;5301042;26;19930;-70
2024/05/01 05:30:49;;;;;;;;;;;;;;;;;;5304802;27;20370;-72
2024/05/01 05:33:18;;;;;;;;;;;;;;;;;;5304824;26;19931;-73
2024/05/01 05:35:47;;;;;;;;;;;;;;;;;;5305217;26;19942;-71
2024/05/01 05:38:15;;;;;;;;;;;;;;;;;;5306445;26;19938;-69
2024/05/01 05:40:44;;;;;;;;;;;;;;;;;;5290726;26;19934;-69
2024/05/01 05:43:13;;;;;;;;;;;;;;;;;;5306972;26;19931;-70
2024/05/01 05:45:43;;;;;;;;;;;;;;;;;;5306178;26;19931;-70
2024/05/01 05:48:11;;;;;;;;;;;;;;;;;;5305803;27;19930;-70
2024/05/01 05:50:40;;;;;;;;;;;;;;;;;;5303296;26;19938;-70
2024/05/01 05:53:11;;;;;;;;;;;;;;;;;;5304801;27;19937;-69
2024/05/01 05:55:41;;;;;;;;;;;;;;;;;;5306825;26;19937;-69
2024/05/01 05:58:10;;;;;;;;;;;;;;;;;;5299700;27;20373;-69
2024/05/01 06:00:38;;;;;;;;;;;;;;;;;;5305619;26;19943;-69
2024/05/01 06:03:07;;;;;;;;;;;;;;;;;;5305573;26;19938;-69
2024/05/01 06:05:36;;;;;;;;;;;;;;;;;;5306598;26;19935;-69
2024/05/01 06:08:04;;;;;;;;;;;;;;;;;;5299812;26;19931;-68
2024/05/01 06:10:33;;;;;;;;;;;;;;;;;;5305088;27;19931;-69
2024/05/01 06:13:02;;;;;;;;;;;;;;;;;;5302937;27;19930;-68
2024/05/01 06:15:30;;;;;;;;;;;;;;;;;;5306012;26;20373;-68
2024/05/01 06:17:59;;;;;;;;;;;;;;;;;;5304891;27;19931;-67
2024/05/01 06:20:29;;;;;;;;;;;;;;;;;;5306349;26;20512;-67
2024/05/01 06:22:57;;;;;;;;;;;;;;;;;;5303959;27;19938;-66
2024/05/01 06:25:26;;;;;;;;;;;;;;;;;;5306969;26;19931;-67
2024/05/01 06:27:55;;;;;;;;;;;;;;;;;;5305197;26;20370;-69
2024/05/01 06:30:24;;;;;;;;;;;;;;;;;;5306522;27;19986;-69
2024/05/01 06:32:53;;;;;;;;;;;;;;;;;;5306070;27;19942;-69
2024/05/01 06:35:21;;;;;;;;;;;;;;;;;;5304804;27;19937;-69
2024/05/01 06:37:50;;;;;;;;;;;;;;;;;;5303829;26;19930;-69
2024/05/01 06:40:19;;;;;;;;;;;;;;;;;;5299133;26;19938;-70
2024/05/01 06:42:47;;;;;;;;;;;;;;;;;;5304068;26;19930;-69
2024/05/01 06:45:13;;;;;;;;;;;;;;;;;;5302866;26;20408;-67
2024/05/01 06:47:42;;;;;;;;;;;;;;;;;;5301142;26;19931;-67
2024/05/01 06:50:11;;;;;;;;;;;;;;;;;;5300576;27;19938;-66
2024/05/01 06:52:39;;;;;;;;;;;;;;;;;;5302175;26;19930;-69
2024/05/01 06:55:08;;;;;;;;;;;;;;;;;;5303149;26;19941;-68
2024/05/01 06:57:40;;;;;;;;;;;;;;;;;;5303222;27;19930;-68
2024/05/01 07:00:09;;;;;;;;;;;;;;;;;;5298562;26;19930;-68
2024/05/01 07:02:38;;;;;;;;;;;;;;;;;;5304111;26;19931;-68
2024/05/01 07:05:06;;;;;;;;;;;;;;;;;;5301052;26;19938;-68
2024/05/01 07:07:35;;;;;;;;;;;;;;;;;;5302430;26;19938;-68
2024/05/01 07:10:04;;;;;;;;;;;;;;;;;;5303077;27;19930;-68
2024/05/01 07:12:32;;;;;;;;;;;;;;;;;;5304238;27;20273;-69
2024/05/01 07:15:02;;;;;;;;;;;;;;;;;;5303661;27;19930;-70
2024/05/01 07:17:31;;;;;;;;;;;;;;;;;;5303098;27;19931;-69
2024/05/01 07:19:59;;;;;;;;;;;;;;;;;;5305666;26;19941;-68
2024/05/01 07:22:28;;;;;;;;;;;;;;;;;;5303838;26;19938;-73
2024/05/01 07:24:56;;;;;;;;;;;;;;;;;;5304958;27;20286;-73
2024/05/01 07:27:25;;;;;;;;;;;;;;;;;;5302205;26;19931;-69
2024/05/01 07:29:54;;;;;;;;;;;;;;;;;;5304944;26;19943;-69
2024/05/01 07:32:22;;;;;;;;;;;;;;;;;;5304266;26;19931;-68
2024/05/01 07:34:51;;;;;;;;;;;;;;;;;;5303518;26;19937;-69
2024/05/01 07:37:20;;;;;;;;;;;;;;;;;;5303612;26;20274;-70
2024/05/01 07:39:48;;;;;;;;;;;;;;;;;;5302791;26;19930;-70
2024/05/01 07:42:17;;;;;;;;;;;;;;;;;;5300787;26;19937;-70
2024/05/01 07:44:46;;;;;;;;;;;;;;;;;;5303291;26;20316;-69
2024/05/01 07:47:15;;;;;;;;;;;;;;;;;;5302884;26;19937;-69
2024/05/01 07:49:43;;;;;;;;;;;;;;;;;;5303266;27;20366;-70
2024/05/01 07:52:12;;;;;;;;;;;;;;;;;;5302754;26;19937;-69
2024/05/01 07:54:41;;;;;;;;;;;;;;;;;;5303038;26;19937;-70
2024/05/01 07:57:09;;;;;;;;;;;;;;;;;;5303727;27;19930;-70
2024/05/01 07:59:38;;;;;;;;;;;;;;;;;;5300264;26;19938;-70
2024/05/01 08:02:07;;;;;;;;;;;;;;;;;;5302427;26;19930;-70
2024/05/01 08:04:36;;;;;;;;;;;;;;;;;;5303651;26;19931;-70
2024/05/01 08:07:04;;;;;;;;;;;;;;;;;;5303809;27;20255;-70
2024/05/01 08:09:33;;;;;;;;;;;;;;;;;;5303084;26;19931;-71
2024/05/01 08:12:02;;;;;;;;;;;;;;;;;;5303857;26;19958;-70
2024/05/01 08:14:30;;;;;;;;;;;;;;;;;;5303296;26;19941;-71
2024/05/01 08:16:59;;;;;;;;;;;;;;;;;;5302431;26;19966;-70
2024/05/01 08:19:28;;;;;;;;;;;;;;;;;;5304832;27;19942;-72
2024/05/01 08:21:56;;;;;;;;;;;;;;;;;;5303781;26;19937;-71
2024/05/01 08:24:25;;;;;;;;;;;;;;;;;;5304488;26;19930;-70
2024/05/01 08:26:54;;;;;;;;;;;;;;;;;;5305186;27;19934;-70
2024/05/01 08:29:23;;;;;;;;;;;;;;;;;;5304685;26;19931;-70
2024/05/01 08:31:51;;;;;;;;;;;;;;;;;;5305593;26;19931;-70
2024/05/01 08:34:20;;;;;;;;;;;;;;;;;;5302898;26;19938;-70
2024/05/01 08:36:49;;;;;;;;;;;;;;;;;;5302053;26;19931;-67
2024/05/01 08:39:17;;;;;;;;;;;;;;;;;;5306361;26;20358;-71
2024/05/01 08:41:46;;;;;;;;;;;;;;;;;;5308317;26;19934;-68
2024/05/01 08:44:15;;;;;;;;;;;;;;;;;;5308255;27;19938;-69
2024/05/01 08:46:44;;;;;;;;;;;;;;;;;;5307532;27;19939;-70
2024/05/01 08:49:12;;;;;;;;;;;;;;;;;;5307672;26;19938;-73
2024/05/01 08:51:41;;;;;;;;;;;;;;;;;;5308017;26;19938;-69
2024/05/01 08:54:09;;;;;;;;;;;;;;;;;;5305731;26;19931;-69
2024/05/01 08:56:39;;;;;;;;;;;;;;;;;;5304122;26;20269;-69
2024/05/01 08:59:08;;;;;;;;;;;;;;;;;;5302737;26;19940;-72
2024/05/01 09:01:39;;;;;;;;;;;;;;;;;;5306359;26;19931;-72
2024/05/01 09:04:08;;;;;;;;;;;;;;;;;;5308069;26;19939;-72
2024/05/01 09:06:37;;;;;;;;;;;;;;;;;;5307200;27;19938;-72
2024/05/01 09:09:05;;;;;;;;;;;;;;;;;;5304103;26;19938;-70
2024/05/01 09:11:34;;;;;;;;;;;;;;;;;;5304598;26;20362;-71
2024/05/01 09:14:02;;;;;;;;;;;;;;;;;;5307498;27;19931;-69
2024/05/01 09:16:31;;;;;;;;;;;;;;;;;;5307937;27;19937;-69
2024/05/01 09:19:00;;;;;;;;;;;;;;;;;;5307792;27;19942;-70
2024/05/01 09:21:28;;;;;;;;;;;;;;;;;;5307109;26;19937;-69
2024/05/01 09:23:57;;;;;;;;;;;;;;;;;;5307414;27;20385;-70
2024/05/01 09:26:26;;;;;;;;;;;;;;;;;;5306012;26;19931;-70
2024/05/01 09:28:55;;;;;;;;;;;;;;;;;;5307025;26;19930;-70
2024/05/01 09:31:23;;;;;;;;;;;;;;;;;;5305270;26;19930;-71
2024/05/01 09:33:53;;;;;;;;;;;;;;;;;;5307699;26;19931;-70
2024/05/01 09:36:21;;;;;;;;;;;;;;;;;;5307145;26;19934;-70
2024/05/01 09:38:50;;;;;;;;;;;;;;;;;;5307463;26;19938;-71
2024/05/01 09:41:20;;;;;;;;;;;;;;;;;;5307803;26;20445;-71
2024/05/01 09:43:49;;;;;;;;;;;;;;;;;;5307422;26;19931;-70
2024/05/01 09:46:18;;;;;;;;;;;;;;;;;;5304877;26;20322;-71
2024/05/01 09:48:46;;;;;;;;;;;;;;;;;;5306453;26;19931;-70
2024/05/01 09:51:15;;;;;;;;;;;;;;;;;;5307922;26;19931;-71
2024/05/01 09:53:44;;;;;;;;;;;;;;;;;;5303899;26;20285;-70
2024/05/01 09:56:12;;;;;;;;;;;;;;;;;;5307159;27;20481;-71
2024/05/01 09:58:41;;;;;;;;;;;;;;;;;;5306320;26;19938;-70
2024/05/01 10:01:10;;;;;;;;;;;;;;;;;;5306932;26;20373;-70
2024/05/01 10:03:38;;;;;;;;;;;;;;;;;;5306180;27;19930;-71
2024/05/01 10:06:07;;;;;;;;;;;;;;;;;;5307112;26;20108;-70
2024/05/01 10:08:36;;;;;;;;;;;;;;;;;;5307432;27;19931;-70
2024/05/01 10:11:04;;;;;;;;;;;;;;;;;;5305307;26;20368;-70
2024/05/01 10:13:33;;;;;;;;;;;;;;;;;;5306498;26;19946;-70
2024/05/01 10:16:02;;;;;;;;;;;;;;;;;;5305748;26;19930;-71
2024/05/01 10:18:30;;;;;;;;;;;;;;;;;;5305546;26;20374;-70
2024/05/01 10:21:03;;;;;;;;;;;;;;;;;;5304740;26;19941;-70
2024/05/01 10:23:32;;;;;;;;;;;;;;;;;;5304205;27;19938;-67
2024/05/01 10:26:00;;;;;;;;;;;;;;;;;;5304158;27;20269;-70
2024/05/01 10:28:29;;;;;;;;;;;;;;;;;;5302953;27;19938;-69
2024/05/01 10:30:58;;;;;;;;;;;;;;;;;;5304556;26;19934;-70
2024/05/01 10:33:26;;;;;;;;;;;;;;;;;;5304692;27;19931;-70
2024/05/01 10:35:55;;;;;;;;;;;;;;;;;;5304515;26;19938;-70
2024/05/01 10:38:24;;;;;;;;;;;;;;;;;;5303960;26;19931;-70
2024/05/01 10:40:52;;;;;;;;;;;;;;;;;;5304759;26;19938;-71
2024/05/01 10:43:21;;;;;;;;;;;;;;;;;;5304480;27;19930;-71
2024/05/01 10:45:50;;;;;;;;;;;;;;;;;;5302703;26;19938;-69
2024/05/01 10:48:18;;;;;;;;;;;;;;;;;;5304801;26;20373;-69
2024/05/01 10:50:47;;;;;;;;;;;;;;;;;;5305781;27;19934;-70
2024/05/01 10:53:16;;;;;;;;;;;;;;;;;;5306262;26;19938;-70
2024/05/01 10:55:44;;;;;;;;;;;;;;;;;;5304209;27;19934;-69
2024/05/01 10:58:13;;;;;;;;;;;;;;;;;;5306328;26;20394;-69
2024/05/01 11:00:42;;;;;;;;;;;;;;;;;;5304797;26;19931;-69
2024/05/01 11:03:10;;;;;;;;;;;;;;;;;;5304546;26;19935;-69
2024/05/01 11:05:39;;;;;;;;;;;;;;;;;;5306728;26;19934;-69
2024/05/01 11:08:08;;;;;;;;;;;;;;;;;;5305350;26;20376;-69
2024/05/01 11:10:36;;;;;;;;;;;;;;;;;;5306189;26;19932;-70
2024/05/01 11:13:05;;;;;;;;;;;;;;;;;;5306686;27;19934;-70
2024/05/01 11:15:34;;;;;;;;;;;;;;;;;;5306722;27;19938;-70
2024/05/01 11:18:02;;;;;;;;;;;;;;;;;;5306190;26;20362;-69
2024/05/01 11:20:31;;;;;;;;;;;;;;;;;;5304294;26;20003;-70
2024/05/01 11:23:00;;;;;;;;;;;;;;;;;;5305704;26;22047;-70
2024/05/01 11:25:28;;;;;;;;;;;;;;;;;;5305860;26;19938;-70
2024/05/01 11:27:57;;;;;;;;;;;;;;;;;;5305524;26;19939;-70
2024/05/01 11:30:26;;;;;;;;;;;;;;;;;;5306127;26;19930;-70
2024/05/01 11:32:55;;;;;;;;;;;;;;;;;;5306462;26;19937;-70
2024/05/01 11:35:24;;;;;;;;;;;;;;;;;;5306167;26;20000;-70
2024/05/01 11:37:52;;;;;;;;;;;;;;;;;;5304104;26;19931;-70
2024/05/01 11:40:21;;;;;;;;;;;;;;;;;;5306079;26;19931;-70
2024/05/01 11:42:50;;;;;;;;;;;;;;;;;;5305866;27;19939;-70
2024/05/01 11:45:19;;;;;;;;;;;;;;;;;;5305567;26;19931;-70
2024/05/01 11:47:48;;;;;;;;;;;;;;;;;;5305092;26;19930;-71
2024/05/01 11:50:16;;;;;;;;;;;;;;;;;;5305108;27;19931;-72
2024/05/01 11:52:45;;;;;;;;;;;;;;;;;;5240620;27;1737523;-70
2024/05/01 11:55:14;;;;;;;;;;;;;;;;;;5302812;26;19930;-70
2024/05/01 11:57:42;;;;;;;;;;;;;;;;;;5305177;26;19931;-71
2024/05/01 12:00:11;;;;;;;;;;;;;;;;;;5305031;26;19946;-70
2024/05/01 12:02:40;;;;;;;;;;;;;;;;;;5305872;26;19937;-70
2024/05/01 12:05:08;;;;;;;;;;;;;;;;;;5305672;26;19930;-70
2024/05/01 12:07:37;;;;;;;;;;;;;;;;;;5305133;26;19941;-70
2024/05/01 12:10:06;;;;;;;;;;;;;;;;;;5305158;26;20266;-70
2024/05/01 12:12:34;;;;;;;;;;;;;;;;;;5303253;26;19938;-70
2024/05/01 12:15:03;;;;;;;;;;;;;;;;;;5304790;26;19934;-70
2024/05/01 12:17:33;;;;;;;;;;;;;;;;;;5300518;26;19930;-70
2024/05/01 12:20:02;;;;;;;;;;;;;;;;;;5303214;26;19960;-69
2024/05/01 12:22:31;;;;;;;;;;;;;;;;;;5303053;26;19931;-70
2024/05/01 12:24:59;;;;;;;;;;;;;;;;;;5303480;26;20731;-69
2024/05/01 12:27:28;;;;;;;;;;;;;;;;;;5303133;26;19934;-70
2024/05/01 12:29:57;;;;;;;;;;;;;;;;;;5301508;27;19938;-70
2024/05/01 12:32:25;;;;;;;;;;;;;;;;;;5300453;26;19937;-70
2024/05/01 12:34:54;;;;;;;;;;;;;;;;;;5303160;26;19938;-70
2024/05/01 12:37:23;;;;;;;;;;;;;;;;;;5302460;27;19930;-70
2024/05/01 12:39:52;;;;;;;;;;;;;;;;;;5301982;26;19938;-71
2024/05/01 12:42:20;;;;;;;;;;;;;;;;;;5302558;27;19938;-70
2024/05/01 12:44:49;;;;;;;;;;;;;;;;;;5302985;27;20401;-71
2024/05/01 12:47:18;;;;;;;;;;;;;;;;;;5302720;26;19938;-70
2024/05/01 12:49:46;;;;;;;;;;;;;;;;;;5300133;26;19931;-71
2024/05/01 12:52:15;;;;;;;;;;;;;;;;;;5302588;26;19938;-70
2024/05/01 12:54:41;;;;;;;;;;;;;;;;;;5304016;26;19930;-70
2024/05/01 12:57:10;;;;;;;;;;;;;;;;;;5304408;27;20332;-70
2024/05/01 12:59:36;;;;;;;;;;;;;;;;;;5303452;27;19931;-70
2024/05/01 13:02:05;;;;;;;;;;;;;;;;;;5304670;27;19938;-70
2024/05/01 13:04:34;;;;;;;;;;;;;;;;;;5302958;26;19941;-70
2024/05/01 13:07:03;;;;;;;;;;;;;;;;;;5304248;26;19930;-70
2024/05/01 13:09:31;;;;;;;;;;;;;;;;;;5304478;27;20385;-70
2024/05/01 13:12:00;;;;;;;;;;;;;;;;;;5304165;27;20270;-70
2024/05/01 13:14:29;;;;;;;;;;;;;;;;;;5304792;27;20040;-70
2024/05/01 13:16:58;;;;;;;;;;;;;;;;;;5304376;27;20529;-71
2024/05/01 13:19:24;;;;;;;;;;;;;;;;;;5303885;27;19938;-70
2024/05/01 13:21:53;;;;;;;;;;;;;;;;;;5301877;26;19954;-71
2024/05/01 13:24:19;;;;;;;;;;;;;;;;;;5305853;27;19931;-70
2024/05/01 13:26:48;;;;;;;;;;;;;;;;;;5307590;27;19993;-70
2024/05/01 13:29:14;;;;;;;;;;;;;;;;;;5307066;26;20258;-70
2024/05/01 13:31:42;;;;;;;;;;;;;;;;;;5307560;26;19949;-70
2024/05/01 13:34:08;;;;;;;;;;;;;;;;;;5308067;26;19930;-70
2024/05/01 13:36:37;;;;;;;;;;;;;;;;;;5307190;26;20369;-69
2024/05/01 13:39:06;;;;;;;;;;;;;;;;;;5305214;26;19931;-70
2024/05/01 13:41:34;;;;;;;;;;;;;;;;;;5307704;26;19930;-70
2024/05/01 13:44:00;;;;;;;;;;;;;;;;;;5307861;26;19930;-70
2024/05/01 13:46:29;;;;;;;;;;;;;;;;;;5307192;27;20015;-70
2024/05/01 13:48:55;;;;;;;;;;;;;;;;;;5307702;26;19937;-70
2024/05/01 13:51:24;;;;;;;;;;;;;;;;;;5307473;26;19983;-69
2024/05/01 13:53:50;;;;;;;;;;;;;;;;;;5307494;26;20381;-70
2024/05/01 13:56:18;;;;;;;;;;;;;;;;;;5305140;26;20476;-70
2024/05/01 13:58:47;;;;;;;;;;;;;;;;;;5306959;27;19991;-71
2024/05/01 14:01:13;;;;;;;;;;;;;;;;;;5306554;26;19931;-70
2024/05/01 14:03:42;;;;;;;;;;;;;;;;;;5306163;27;19937;-70
2024/05/01 14:06:08;;;;;;;;;;;;;;;;;;5305340;27;20049;-71
2024/05/01 14:08:37;;;;;;;;;;;;;;;;;;5304975;27;19934;-70
2024/05/01 14:11:05;;;;;;;;;;;;;;;;;;5305575;26;19938;-70
2024/05/01 14:13:31;;;;;;;;;;;;;;;;;;5303326;26;20539;-71
2024/05/01 14:16:00;;;;;;;;;;;;;;;;;;5303342;26;20026;-71
2024/05/01 14:18:26;;;;;;;;;;;;;;;;;;5306281;26;19937;-71
2024/05/01 14:20:55;;;;;;;;;;;;;;;;;;5305947;27;19931;-69
2024/05/01 14:23:21;;;;;;;;;;;;;;;;;;5303137;27;19931;-70
2024/05/01 14:25:49;;;;;;;;;;;;;;;;;;5297527;26;19959;-70
2024/05/01 14:28:15;;;;;;;;;;;;;;;;;;5305652;27;19930;-70
2024/05/01 14:30:44;;;;;;;;;;;;;;;;;;5303997;26;19942;-70
2024/05/01 14:33:10;;;;;;;;;;;;;;;;;;5304688;27;19946;-70
2024/05/01 14:35:39;;;;;;;;;;;;;;;;;;5305858;26;19930;-70
2024/05/01 14:38:09;;;;;;;;;;;;;;;;;;5305701;26;19931;-70
2024/05/01 14:40:38;;;;;;;;;;;;;;;;;;5305091;27;19941;-70
2024/05/01 14:43:06;;;;;;;;;;;;;;;;;;5305122;27;20271;-70
2024/05/01 14:45:35;;;;;;;;;;;;;;;;;;5306392;26;20479;-69
2024/05/01 14:48:04;;;;;;;;;;;;;;;;;;5306380;27;19931;-69
2024/05/01 14:50:32;;;;;;;;;;;;;;;;;;5301545;26;19931;-69
2024/05/01 14:53:01;;;;;;;;;;;;;;;;;;5304560;27;19937;-69
2024/05/01 14:55:30;;;;;;;;;;;;;;;;;;5305841;26;19938;-70
2024/05/01 14:57:58;;;;;;;;;;;;;;;;;;5304850;26;19930;-69
2024/05/01 15:00:24;;;;;;;;;;;;;;;;;;5305266;26;19931;-69
2024/05/01 15:02:53;;;;;;;;;;;;;;;;;;5305590;27;19938;-70
2024/05/01 15:05:19;;;;;;;;;;;;;;;;;;5305965;27;19967;-70
2024/05/01 15:07:48;;;;;;;;;;;;;;;;;;5302493;26;19940;-69
2024/05/01 15:10:16;;;;;;;;;;;;;;;;;;5305145;27;19931;-70
2024/05/01 15:12:45;;;;;;;;;;;;;;;;;;5305802;26;19931;-70
2024/05/01 15:15:14;;;;;;;;;;;;;;;;;;5305264;26;19930;-69
2024/05/01 15:17:43;;;;;;;;;;;;;;;;;;5303434;26;19937;-71
2024/05/01 15:20:11;;;;;;;;;;;;;;;;;;5305555;27;20003;-71
2024/05/01 15:22:40;;;;;;;;;;;;;;;;;;5301739;26;19931;-71
2024/05/01 15:25:09;;;;;;;;;;;;;;;;;;5304434;27;19938;-69
2024/05/01 15:27:37;;;;;;;;;;;;;;;;;;5305365;26;19942;-69
2024/05/01 15:30:06;;;;;;;;;;;;;;;;;;5298423;26;19938;-70
2024/05/01 15:32:32;;;;;;;;;;;;;;;;;;5304436;27;19937;-70
2024/05/01 15:35:01;;;;;;;;;;;;;;;;;;5306041;27;20080;-69
2024/05/01 15:37:29;;;;;;;;;;;;;;;;;;5305597;26;19943;-70
2024/05/01 15:39:58;;;;;;;;;;;;;;;;;;5304148;26;19938;-70
2024/05/01 15:42:27;;;;;;;;;;;;;;;;;;5304808;26;20362;-70
2024/05/01 15:44:55;;;;;;;;;;;;;;;;;;5305284;26;20542;-70
2024/05/01 15:47:24;;;;;;;;;;;;;;;;;;5303993;26;19930;-70
2024/05/01 15:49:53;;;;;;;;;;;;;;;;;;5305354;26;19931;-70
2024/05/01 15:52:21;;;;;;;;;;;;;;;;;;5304091;27;20364;-69
2024/05/01 15:54:50;;;;;;;;;;;;;;;;;;5305372;26;19930;-70
2024/05/01 15:57:19;;;;;;;;;;;;;;;;;;5302279;26;20020;-70
2024/05/01 15:59:47;;;;;;;;;;;;;;;;;;5303884;27;19930;-70
2024/05/01 16:02:16;;;;;;;;;;;;;;;;;;5304124;27;19937;-70
2024/05/01 16:04:45;;;;;;;;;;;;;;;;;;5304606;27;19938;-70
2024/05/01 16:07:13;;;;;;;;;;;;;;;;;;5305035;26;21542;-70
2024/05/01 16:09:42;;;;;;;;;;;;;;;;;;5304504;26;20266;-71
2024/05/01 16:12:11;;;;;;;;;;;;;;;;;;5303119;27;19962;-70
2024/05/01 16:14:39;;;;;;;;;;;;;;;;;;5305204;26;19931;-70
2024/05/01 16:17:08;;;;;;;;;;;;;;;;;;5304034;27;19931;-69
2024/05/01 16:19:37;;;;;;;;;;;;;;;;;;5304664;27;19930;-71
2024/05/01 16:22:05;;;;;;;;;;;;;;;;;;5303722;26;19931;-71
2024/05/01 16:24:34;;;;;;;;;;;;;;;;;;5303888;27;19930;-71
2024/05/01 16:27:03;;;;;;;;;;;;;;;;;;5301301;26;20257;-71
2024/05/01 16:29:31;;;;;;;;;;;;;;;;;;5302814;26;20257;-71
2024/05/01 16:32:00;;;;;;;;;;;;;;;;;;5305103;26;19958;-72
2024/05/01 16:34:26;;;;;;;;;;;;;;;;;;5304124;27;19937;-68
2024/05/01 16:36:55;;;;;;;;;;;;;;;;;;5303479;27;20021;-68
2024/05/01 16:39:24;;;;;;;;;;;;;;;;;;5298188;27;19931;-68
2024/05/01 16:41:52;;;;;;;;;;;;;;;;;;5303983;26;19986;-68
2024/05/01 16:44:23;;;;;;;;;;;;;;;;;;5300753;26;19931;-69
2024/05/01 16:46:51;;;;;;;;;;;;;;;;;;5304079;27;19961;-69
2024/05/01 16:49:20;;;;;;;;;;;;;;;;;;5304924;27;19938;-68
2024/05/01 16:51:49;;;;;;;;;;;;;;;;;;5304542;27;19931;-69